Startpagina
METAR-TAF:

METAR-TAF

Vliegvelden :

Kosrae, Micronesië

breedte: 05-21N, lengte: 162-57E, hoogte: 3 m

Actueel weer

Dit bericht is 1 uur en het 19 minuten geleden gemaakt, om 22:50 UTC
Wind 8 kt uit het oostzuidoosten
Temperatuur 26°C
Vochtigheid 89%
Druk 1010 hPa
Zicht: 16.1 km
Gebroken wolken op 1200 ft, Stapelwolken.
Gebroken wolken op 13000 ft
Geheel bewolkt op 30000 ft
buien in de omgeving

METAR: PTSA 272250Z 12008KT 10SM VCSH BKN012TCU BKN130 OVC300 26/24 A2982 RMK VCSH S-NW TCU SE-N

Tijdstip: 11:09 (00:09 UTC)

Verwachting

Dit bericht is 43 minuten geleden gemaakt, om 23:26 UTC
Verwachting geldig van 28 om 00 UTC tot 28 om 24 UTC
Wind 11 kt uit het oosten
Zicht: 10 km
Verspreide wolken op 1400 ft
Gebroken wolken op 13000 ft
buien in de omgeving
Tijdelijke
van 28 om 00 UTC tot 28 om 04 UTC
Zicht: 6.4 km
Gebroken wolken op 1400 ft
Geheel bewolkt op 3000 ft
regenbuien

TAF: PTSA 272326Z 2800/2824 10011KT P6SM VCSH SCT014 BKN130 TEMPO 2800/2804 4SM SHRA BKN014 OVC030

Waarnemingen en weersverwachtingen van meer dan 4000 vliegvelden (METAR en TAF).

De beschikbare stations zijn de gele en rode punten op de kaart.

Ga met uw muis naar het station om de naam te zien.

Klik dan om waarnemingen en weersverwachtingen te zien.

kaart wijzigen: klik op de groene knoppen met een zwart kruis om in te zoomen, op de groene knop met een streepje om uit te zoomen of op de groene pijlen voor aangrenzende kaarten.


METAR-TAF: